createdAt,value
2019-03-15T07:13:22.631Z,5.10
2019-03-15T07:15:51.953Z,5.50
2019-03-15T07:18:21.275Z,5.70
2019-03-15T07:20:50.593Z,5.90
2019-03-15T07:23:20.291Z,6.00
2019-03-15T07:25:49.626Z,6.20
2019-03-15T07:28:18.952Z,6.40
2019-03-15T07:30:49.354Z,6.60
2019-03-15T07:33:18.706Z,6.70
2019-03-15T07:35:48.093Z,6.90
2019-03-15T07:38:17.419Z,7.00
2019-03-15T07:40:46.808Z,7.20
2019-03-15T07:43:16.127Z,7.40
2019-03-15T07:45:45.470Z,7.60
2019-03-15T07:48:22.568Z,7.80
2019-03-15T07:50:46.801Z,7.90
2019-03-15T07:53:16.116Z,8.20
2019-03-15T07:55:45.437Z,8.40
2019-03-15T07:58:14.825Z,8.60
2019-03-15T08:00:44.184Z,8.80
2019-03-15T08:03:13.496Z,9.00
2019-03-15T08:05:42.820Z,9.20
2019-03-15T08:08:12.149Z,9.40
2019-03-15T08:10:41.474Z,9.60
2019-03-15T08:13:10.795Z,9.80
2019-03-15T08:15:40.121Z,10.00
2019-03-15T08:18:09.452Z,10.20
2019-03-15T08:20:38.799Z,10.40
2019-03-15T08:23:08.902Z,10.60
2019-03-15T08:25:38.493Z,10.80
2019-03-15T08:28:07.857Z,10.90
2019-03-15T08:30:37.273Z,11.10
2019-03-15T08:33:10.423Z,11.30
2019-03-15T08:35:37.540Z,11.40
2019-03-15T08:38:06.871Z,11.40
2019-03-15T08:40:36.210Z,11.40
2019-03-15T08:43:05.529Z,11.50
2019-03-15T08:45:34.860Z,11.50
2019-03-15T08:48:04.182Z,11.60
2019-03-15T08:50:33.518Z,11.80
2019-03-15T08:53:03.912Z,11.90
2019-03-15T08:55:33.280Z,11.90
2019-03-15T08:58:13.298Z,12.00
2019-03-15T09:00:33.562Z,12.10
2019-03-15T09:03:02.933Z,12.30
2019-03-15T09:05:32.263Z,12.40
2019-03-15T09:08:01.590Z,12.60
2019-03-15T09:10:30.932Z,12.60
2019-03-15T09:13:00.344Z,12.60
2019-03-15T09:15:30.931Z,12.70
2019-03-15T09:18:00.430Z,12.70
2019-03-15T09:20:30.621Z,12.60
2019-03-15T09:23:00.211Z,12.60
2019-03-15T09:25:29.611Z,12.60
2019-03-15T09:27:59.030Z,12.70
2019-03-15T09:30:28.356Z,12.90
2019-03-15T09:32:57.683Z,13.20
2019-03-15T09:35:27.024Z,13.40
2019-03-15T09:37:56.500Z,13.60
2019-03-15T09:40:26.219Z,13.80
2019-03-15T09:42:55.571Z,13.90
2019-03-15T09:45:24.976Z,14.00
2019-03-15T09:47:54.272Z,14.10
2019-03-15T09:50:33.751Z,14.00
2019-03-15T09:52:54.567Z,13.90
2019-03-15T09:55:32.908Z,13.90
2019-03-15T09:57:54.916Z,14.00
2019-03-15T10:00:24.252Z,14.00
2019-03-15T10:02:56.025Z,14.00
2019-03-15T10:05:24.596Z,13.90
2019-03-15T10:07:53.970Z,13.90
2019-03-15T10:10:23.292Z,14.00
2019-03-15T10:13:05.164Z,14.20
2019-03-15T10:15:26.134Z,14.20
2019-03-15T10:17:54.523Z,14.40
2019-03-15T10:20:23.860Z,14.60
2019-03-15T10:23:05.525Z,14.80
2019-03-15T10:25:25.208Z,14.80
2019-03-15T10:27:54.604Z,14.90
2019-03-15T10:30:23.954Z,15.00
2019-03-15T10:32:53.280Z,15.10
2019-03-15T10:35:22.631Z,15.00
2019-03-15T10:37:51.977Z,15.10
2019-03-15T10:40:24.831Z,15.30
2019-03-15T10:42:55.646Z,15.50
2019-03-15T10:45:25.476Z,15.70
2019-03-15T10:47:54.783Z,15.80
2019-03-15T10:50:24.106Z,15.90
2019-03-15T10:52:53.895Z,15.80
2019-03-15T10:55:23.643Z,15.70
2019-03-15T10:57:53.066Z,15.60
2019-03-15T11:00:22.401Z,15.60
2019-03-15T11:02:51.741Z,15.70
2019-03-15T11:05:21.121Z,15.80
2019-03-15T11:07:50.519Z,15.90
2019-03-15T11:10:19.911Z,15.90
2019-03-15T11:12:49.559Z,15.90
2019-03-15T11:15:18.917Z,16.00
2019-03-15T11:17:48.283Z,16.20
2019-03-15T11:20:17.653Z,16.40
2019-03-15T11:22:47.013Z,16.70
2019-03-15T11:25:16.374Z,16.90
2019-03-15T11:27:45.743Z,17.10
2019-03-15T11:30:15.241Z,17.00
2019-03-15T11:32:44.608Z,17.00
2019-03-15T11:35:14.009Z,16.90
2019-03-15T11:37:43.438Z,16.90
2019-03-15T11:40:15.078Z,17.00
2019-03-15T11:42:44.438Z,17.20
2019-03-15T11:45:13.970Z,17.30
2019-03-15T11:48:02.807Z,17.50
2019-03-15T11:50:16.223Z,17.80
2019-03-15T11:52:45.584Z,17.70
2019-03-15T11:55:14.975Z,18.20
2019-03-15T11:57:44.334Z,19.20
2019-03-15T12:00:17.690Z,19.90
2019-03-15T12:02:47.127Z,20.60
2019-03-15T12:05:16.487Z,21.80
2019-03-15T12:07:45.856Z,22.90
2019-03-15T12:10:18.321Z,23.30
2019-03-15T12:12:47.671Z,23.50
2019-03-15T12:15:18.386Z,23.70
2019-03-15T12:17:47.739Z,24.20
2019-03-15T12:20:17.119Z,23.80
2019-03-15T12:22:46.555Z,24.60
2019-03-15T12:25:15.957Z,25.20
2019-03-15T12:27:45.310Z,26.50
2019-03-15T12:30:15.825Z,27.70
2019-03-15T12:32:45.221Z,28.10
2019-03-15T12:35:15.325Z,27.90
2019-03-15T12:37:44.687Z,28.20
2019-03-15T12:40:16.179Z,28.20
2019-03-15T12:42:45.513Z,28.50
2019-03-15T12:45:16.207Z,29.00
2019-03-15T12:47:45.565Z,29.30
2019-03-15T12:50:15.773Z,28.50
2019-03-15T12:52:48.050Z,27.40
2019-03-15T12:55:16.306Z,26.00
2019-03-15T12:57:49.037Z,24.90
2019-03-15T13:00:20.698Z,24.20
2019-03-15T13:02:50.069Z,23.70
2019-03-15T13:05:19.463Z,23.40
2019-03-15T13:07:48.846Z,23.20
2019-03-15T13:10:23.058Z,23.00
2019-03-15T13:12:52.447Z,22.80
2019-03-15T13:15:21.853Z,22.50
2019-03-15T13:17:51.277Z,22.30
2019-03-15T13:20:20.703Z,22.10
2019-03-15T13:22:50.136Z,21.80
2019-03-15T13:25:19.487Z,21.50
2019-03-15T13:27:48.923Z,21.40
2019-03-15T13:30:18.273Z,21.30
2019-03-15T13:32:47.792Z,21.20
2019-03-15T13:35:17.155Z,21.40
2019-03-15T13:37:46.523Z,21.50
2019-03-15T13:40:17.722Z,21.70
2019-03-15T13:42:47.091Z,21.60
2019-03-15T13:45:17.027Z,21.70
2019-03-15T13:47:45.707Z,21.70
2019-03-15T13:50:19.261Z,21.50
2019-03-15T13:52:48.619Z,21.30
2019-03-15T13:55:18.062Z,21.30
2019-03-15T13:57:47.435Z,21.50
2019-03-15T14:00:18.008Z,21.90
2019-03-15T14:02:48.444Z,22.10
2019-03-15T14:05:17.810Z,22.10
2019-03-15T14:07:47.174Z,22.10
2019-03-15T14:10:17.179Z,22.20
2019-03-15T14:12:47.498Z,22.30
2019-03-15T14:15:20.601Z,22.50
2019-03-15T14:17:49.951Z,22.80
2019-03-15T14:20:19.311Z,23.00
2019-03-15T14:22:48.674Z,23.20
2019-03-15T14:25:22.946Z,23.40
2019-03-15T14:27:52.320Z,23.50
2019-03-15T14:30:21.686Z,23.60
2019-03-15T14:32:51.126Z,23.50
2019-03-15T14:35:20.540Z,23.60
2019-03-15T14:37:49.999Z,23.60
2019-03-15T14:40:19.468Z,23.70
2019-03-15T14:42:48.856Z,23.80
2019-03-15T14:45:18.278Z,23.70
2019-03-15T14:47:47.681Z,23.60
2019-03-15T14:50:17.071Z,23.40
2019-03-15T14:52:46.614Z,23.30
2019-03-15T14:55:16.906Z,23.20
2019-03-15T14:57:52.471Z,23.30
2019-03-15T15:00:19.395Z,23.40
2019-03-15T15:02:48.799Z,23.40
2019-03-15T15:05:18.168Z,23.50
2019-03-15T15:07:47.526Z,23.60
2019-03-15T15:10:19.808Z,23.50
2019-03-15T15:12:49.162Z,23.30
2019-03-15T15:15:21.710Z,22.90
2019-03-15T15:17:51.077Z,22.60
2019-03-15T15:20:20.520Z,22.50
2019-03-15T15:22:49.922Z,22.50
2019-03-15T15:25:19.316Z,22.70
2019-03-15T15:27:48.805Z,22.30
2019-03-15T15:30:18.512Z,22.00
2019-03-15T15:32:47.878Z,21.80
2019-03-15T15:35:17.248Z,21.50
2019-03-15T15:37:46.606Z,21.20
2019-03-15T15:40:19.217Z,21.10
2019-03-15T15:42:48.599Z,20.90
2019-03-15T15:45:17.958Z,20.80
2019-03-15T15:47:47.390Z,20.70
2019-03-15T15:50:16.937Z,20.80
2019-03-15T15:52:46.302Z,20.80
2019-03-15T15:55:16.406Z,21.00
2019-03-15T15:57:45.751Z,21.40
2019-03-15T16:00:19.693Z,21.90
2019-03-15T16:02:49.065Z,22.70
2019-03-15T16:05:18.428Z,23.20
2019-03-15T16:07:47.779Z,23.30
2019-03-15T16:10:18.425Z,23.80
2019-03-15T16:12:48.132Z,24.20
2019-03-15T16:15:20.489Z,24.60
2019-03-15T16:17:49.910Z,25.10
2019-03-15T16:20:19.283Z,25.10
2019-03-15T16:22:48.717Z,25.00
2019-03-15T16:25:18.075Z,25.10
2019-03-15T16:27:47.458Z,25.00
2019-03-15T16:30:18.150Z,24.80
2019-03-15T16:32:48.574Z,24.60
2019-03-15T16:35:17.957Z,24.40
2019-03-15T16:37:47.357Z,24.00
2019-03-15T16:40:16.787Z,23.60
2019-03-15T16:42:46.230Z,23.10
2019-03-15T16:45:30.654Z,22.60
2019-03-15T16:48:00.002Z,22.10
2019-03-15T16:50:30.440Z,21.30
2019-03-15T16:52:59.827Z,20.60
2019-03-15T16:55:29.199Z,20.10
2019-03-15T16:57:58.557Z,19.60
2019-03-15T17:00:28.035Z,19.20
2019-03-15T17:02:57.469Z,18.70
2019-03-15T17:05:26.903Z,18.40
2019-03-15T17:07:56.274Z,18.00
2019-03-15T17:10:25.647Z,17.80
2019-03-15T17:12:55.925Z,17.50
2019-03-15T17:15:26.663Z,17.30
2019-03-15T17:17:56.018Z,17.00
2019-03-15T17:20:25.390Z,16.80
2019-03-15T17:22:55.822Z,16.60
2019-03-15T17:25:25.188Z,16.40
2019-03-15T17:27:54.711Z,16.20
2019-03-15T17:30:24.278Z,16.00
2019-03-15T17:32:53.723Z,15.80
2019-03-15T17:35:23.151Z,15.70
2019-03-15T17:37:52.594Z,15.60
2019-03-15T17:40:22.318Z,15.40
2019-03-15T17:42:51.718Z,15.30
2019-03-15T17:45:24.881Z,15.20
2019-03-15T17:47:54.329Z,15.10
2019-03-15T17:50:25.238Z,15.00
2019-03-15T17:52:54.602Z,14.90
2019-03-15T17:55:23.977Z,14.80
2019-03-15T17:57:53.353Z,14.70
2019-03-15T18:00:45.546Z,14.70
2019-03-15T18:03:21.307Z,14.60
2019-03-15T18:05:46.987Z,14.50
2019-03-15T18:08:16.369Z,14.40
2019-03-15T18:10:45.734Z,14.20
2019-03-15T18:13:15.095Z,14.10
2019-03-15T18:15:44.455Z,14.10
2019-03-15T18:18:13.843Z,14.00
2019-03-15T18:20:43.204Z,14.00
2019-03-15T18:23:31.987Z,13.90
2019-03-15T18:26:01.351Z,13.80
2019-03-15T18:28:30.781Z,13.80
2019-03-15T18:31:01.098Z,13.80
2019-03-15T18:33:30.533Z,13.70
2019-03-15T18:35:59.885Z,13.60
2019-03-15T18:38:29.255Z,13.50
2019-03-15T18:40:58.613Z,13.50
2019-03-15T18:43:28.003Z,13.40
2019-03-15T18:45:57.363Z,13.40
2019-03-15T18:48:26.729Z,13.20
2019-03-15T18:50:56.084Z,13.00
2019-03-15T18:53:25.462Z,12.90
2019-03-15T18:55:54.827Z,12.80
2019-03-15T18:58:24.262Z,12.60
2019-03-15T19:00:54.712Z,12.50
2019-03-15T19:03:24.054Z,12.50
2019-03-15T19:05:53.437Z,12.40
2019-03-15T19:08:22.834Z,12.30
2019-03-15T19:10:52.215Z,12.30
2019-03-15T19:13:21.566Z,12.10
2019-03-15T19:15:50.922Z,12.10
2019-03-15T19:18:20.358Z,11.70
2019-03-15T19:20:49.760Z,11.40
2019-03-15T19:23:19.283Z,11.20
2019-03-15T19:25:49.720Z,11.00
2019-03-15T19:28:19.134Z,11.00
2019-03-15T19:30:48.475Z,11.00
2019-03-15T19:33:17.841Z,10.90
2019-03-15T19:35:48.281Z,10.90
2019-03-15T19:38:17.704Z,11.00
2019-03-15T19:40:47.087Z,10.90
2019-03-15T19:43:16.513Z,10.90
2019-03-15T19:45:45.897Z,10.80
2019-03-15T19:48:15.322Z,10.80
2019-03-15T19:50:45.887Z,10.70
2019-03-15T19:53:15.321Z,10.70
2019-03-15T19:55:44.890Z,10.70
2019-03-15T19:58:15.303Z,10.70
2019-03-15T20:00:44.676Z,10.70
2019-03-15T20:03:14.036Z,10.50
2019-03-15T20:05:43.499Z,10.40
2019-03-15T20:08:12.935Z,10.20
2019-03-15T20:10:42.322Z,10.10
2019-03-15T20:13:11.760Z,10.10
2019-03-15T20:15:41.206Z,10.00
2019-03-15T20:18:10.583Z,10.00
2019-03-15T20:20:40.015Z,10.00
2019-03-15T20:23:09.459Z,9.90
2019-03-15T20:25:38.878Z,9.80
2019-03-15T20:28:08.419Z,9.80
2019-03-15T20:30:51.057Z,9.60
2019-03-15T20:33:08.839Z,9.40
2019-03-15T20:35:38.288Z,9.20
2019-03-15T20:38:07.635Z,9.20
2019-03-15T20:40:37.071Z,9.10
2019-03-15T20:43:06.426Z,9.00
2019-03-15T20:45:35.799Z,8.90
2019-03-15T20:48:05.340Z,8.70
2019-03-15T20:50:46.104Z,8.70
2019-03-15T20:53:09.871Z,8.60
2019-03-15T20:55:36.923Z,8.50
2019-03-15T20:58:06.408Z,8.50
2019-03-15T21:00:36.446Z,8.50
2019-03-15T21:03:05.898Z,8.50
2019-03-15T21:05:35.313Z,8.50
2019-03-15T21:08:04.751Z,8.60
2019-03-15T21:10:34.098Z,8.60
2019-03-15T21:13:03.467Z,8.60
2019-03-15T21:15:32.856Z,8.60
2019-03-15T21:18:02.235Z,8.50
2019-03-15T21:20:31.668Z,8.40
2019-03-15T21:23:01.047Z,8.30
2019-03-15T21:25:30.403Z,8.20
2019-03-15T21:27:59.761Z,8.10
2019-03-15T21:30:29.139Z,8.10
2019-03-15T21:32:58.496Z,7.90
2019-03-15T21:35:27.898Z,7.90
2019-03-15T21:37:57.260Z,7.80
2019-03-15T21:40:26.621Z,7.80
2019-03-15T21:42:55.984Z,7.80
2019-03-15T21:45:26.439Z,7.70
2019-03-15T21:47:55.816Z,7.70
2019-03-15T21:50:25.167Z,7.60
2019-03-15T21:52:54.599Z,7.60
2019-03-15T21:55:23.961Z,7.50
2019-03-15T21:57:54.496Z,7.50
2019-03-15T22:00:24.911Z,7.50
2019-03-15T22:02:54.346Z,7.60
2019-03-15T22:05:23.810Z,7.50
2019-03-15T22:07:53.264Z,7.50
2019-03-15T22:10:22.616Z,7.40
2019-03-15T22:12:51.963Z,7.30
2019-03-15T22:15:21.386Z,7.20
2019-03-15T22:17:50.897Z,7.10
2019-03-15T22:20:20.417Z,6.90
2019-03-15T22:22:49.758Z,6.90
2019-03-15T22:25:19.131Z,6.80
2019-03-15T22:27:50.345Z,6.70
2019-03-15T22:30:20.052Z,6.70
2019-03-15T22:32:51.194Z,6.60
2019-03-15T22:35:20.883Z,6.60
2019-03-15T22:38:08.181Z,6.70
2019-03-15T22:40:55.387Z,6.70
2019-03-15T22:43:24.754Z,6.70
2019-03-15T22:45:54.101Z,6.70
2019-03-15T22:48:23.461Z,6.70
2019-03-15T22:50:52.817Z,6.70
2019-03-15T22:53:22.201Z,6.60
2019-03-15T22:55:51.544Z,6.70
2019-03-15T22:58:20.894Z,6.60
2019-03-15T23:00:50.254Z,6.70
2019-03-15T23:03:19.683Z,6.70
2019-03-15T23:05:49.063Z,6.60
2019-03-15T23:08:18.410Z,6.60
2019-03-15T23:10:47.793Z,6.60
2019-03-15T23:13:17.141Z,6.60
2019-03-15T23:15:46.594Z,6.50
2019-03-15T23:18:15.946Z,6.40
2019-03-15T23:20:45.310Z,6.20
2019-03-15T23:23:23.857Z,6.10
2019-03-15T23:25:45.823Z,6.00
2019-03-15T23:28:15.396Z,5.90
2019-03-15T23:30:44.817Z,5.90
2019-03-15T23:33:14.194Z,5.80
2019-03-15T23:35:53.594Z,5.80
2019-03-15T23:38:14.609Z,5.90
2019-03-15T23:40:43.978Z,5.90
2019-03-15T23:43:13.323Z,6.00
2019-03-15T23:45:42.683Z,6.00
2019-03-15T23:48:12.039Z,6.00
2019-03-15T23:50:41.393Z,6.00
2019-03-15T23:53:10.760Z,5.90
2019-03-15T23:55:40.134Z,6.00
2019-03-15T23:58:09.502Z,6.00
